메인 페이지
METAR-TAF:

METAR-TAF

공항 :

펨바, 모잠비크

위도: 12-59S, 경도: 040-32E, 고도: 101m

현재 날씨관측

예보는 13분 전, 09:00시(UTC)에 발표되었습니다.
남남동9kt
온도 28°C
습도 66%
기압 1021 hPa
시정 10km 이상
고도 2000ft 상공 구름 보통

METAR: FQPB 130900Z 16009KT 9999 SCT020 28/21 Q1021

시각: 11:13 (09:13 UTC)

예보

예보는 5 시간 13분 전, 04:00시(UTC)에 발표되었습니다.
예보 대상 시간: 13일 06시부터 14일 06시까지 (UTC)
남서5kt
시정 10km 이상
고도 2000ft 상공 구름 조금
고도 2500ft 상공 구름 많음
전환 중
13일 12시부터 13일 14시까지 (UTC)
남남동10kt
전환 중
14일 00시부터 14일 02시까지 (UTC)
서남서8kt

TAF: FQPB 130400Z 1306/1406 22005KT 9999 FEW020 BKN025 TX28/1313Z TN22/1402Z BECMG 1312/1314 15010KT BECMG 1400/1402 24008KT

4,000개 이상의 공항 관측 자료 및 예보 (METAR 및 TAF 보고).

지도상에서 검색 가능한 기상관측소가 노란 점과 빨간 점으로 표시되어 있습니다.

기상관측소 명을 보려면 표시 위로 마우스를 이동하세요.

날씨 관측과 예보를 보려면 클릭하세요.

지도 변경 : 확대하려면 엑스 표시가 있는 녹색 버튼, 축소하려면 빼기 표시가 있는 녹색 버튼, 다음 페이지의 지도를 보려면 녹색 화살표를 클릭하세요.


METAR-TAF: